Airport ID:KTSP
Update Time (UTC):22 SEP 20 22:40
Wind Speed (Knots):12
Wind Direction (Magnetic):300
Temperature (°C):27
Dew Point (°C):1
Humidity (%):18
Altimeter (inHg):30.15
Density Altitude (Feet):6000
Visibility (Miles):8
Clouds (Hundreds of feet):CLR
Present Weather:NO PRECIPITATION
METAR:METAR KTSP 222240Z AUTO 31013KT 8SM CLR 27/00 A3015 RMK AO2

The data displayed is for advisory purposes only and is not to be used for flight planning or operations.